createdAt,value
2017-05-10T00:00:01.432Z,10.4
2017-05-10T00:05:01.996Z,10.3
2017-05-10T00:10:01.539Z,10.3
2017-05-10T00:15:01.617Z,10.3
2017-05-10T00:20:02.175Z,10.3
2017-05-10T00:25:01.874Z,10.3
2017-05-10T00:30:01.765Z,10.3
2017-05-10T00:35:01.541Z,10.2
2017-05-10T00:40:01.325Z,10.3
2017-05-10T00:45:02.162Z,10.3
2017-05-10T00:50:01.333Z,10.3
2017-05-10T00:55:02.173Z,10.2
2017-05-10T01:00:01.389Z,10.3
2017-05-10T01:05:01.467Z,10.2
2017-05-10T01:10:01.261Z,10.3
2017-05-10T01:15:01.418Z,10.3
2017-05-10T01:20:01.959Z,10.2
2017-05-10T01:25:01.674Z,10.2
2017-05-10T01:30:01.470Z,10.2
2017-05-10T01:35:01.911Z,10.2
2017-05-10T01:40:01.588Z,10.2
2017-05-10T01:45:01.431Z,10.2
2017-05-10T01:50:01.901Z,10.2
2017-05-10T01:55:01.591Z,10.2
2017-05-10T02:00:01.632Z,10.2
2017-05-10T02:05:01.255Z,10.2
2017-05-10T02:10:01.287Z,10.2
2017-05-10T02:15:02.095Z,10.2
2017-05-10T02:20:01.670Z,10.1
2017-05-10T02:25:01.685Z,10.2
2017-05-10T02:30:01.431Z,10.1
2017-05-10T02:35:01.521Z,10.1
2017-05-10T02:40:01.570Z,10.2
2017-05-10T02:45:01.906Z,10.1
2017-05-10T02:50:01.985Z,10.1
2017-05-10T02:55:01.968Z,10.1
2017-05-10T03:00:01.300Z,10.1
2017-05-10T03:05:02.127Z,10.1
2017-05-10T03:10:01.909Z,10.1
2017-05-10T03:15:01.575Z,10.1
2017-05-10T03:20:01.948Z,10.1
2017-05-10T03:25:01.877Z,10.1
2017-05-10T03:30:02.158Z,10.1
2017-05-10T03:35:01.411Z,10.1
2017-05-10T03:40:01.479Z,10.1
2017-05-10T03:45:01.970Z,10.1
2017-05-10T03:50:01.815Z,10.1
2017-05-10T03:55:01.359Z,10
2017-05-10T04:00:01.498Z,10.1
2017-05-10T04:05:01.229Z,10
2017-05-10T04:10:02.176Z,10
2017-05-10T04:15:02.154Z,10.2
2017-05-10T04:20:01.478Z,10.1
2017-05-10T04:25:01.432Z,10.1
2017-05-10T04:30:01.299Z,10.1
2017-05-10T04:35:01.315Z,10.2
2017-05-10T04:40:01.379Z,10.2
2017-05-10T04:45:01.849Z,10.2
2017-05-10T04:50:01.958Z,10.2
2017-05-10T04:55:01.303Z,10.2
2017-05-10T05:00:01.684Z,10.2
2017-05-10T05:05:01.337Z,10.2
2017-05-10T05:10:01.209Z,10.2
2017-05-10T05:15:01.824Z,10.2
2017-05-10T05:20:01.718Z,10.3
2017-05-10T05:25:01.751Z,10.2
2017-05-10T05:30:02.066Z,10.2
2017-05-10T05:35:02.185Z,10.4
2017-05-10T05:40:02.016Z,10.4
2017-05-10T05:45:01.644Z,10.4
2017-05-10T05:50:01.754Z,10.4
2017-05-10T05:55:01.553Z,10.4
2017-05-10T06:00:01.949Z,10.4
2017-05-10T06:05:01.550Z,10.4
2017-05-10T06:10:01.796Z,10.3
2017-05-10T06:15:01.203Z,10.4
2017-05-10T06:20:01.505Z,10.4
2017-05-10T06:25:01.696Z,10.3
2017-05-10T06:30:02.054Z,10.4
2017-05-10T06:35:01.707Z,10.3
2017-05-10T06:40:02.022Z,10.4
2017-05-10T06:45:01.800Z,10.4
2017-05-10T06:50:02.075Z,10.4
2017-05-10T06:55:01.781Z,10.5
2017-05-10T07:00:01.177Z,10.4
2017-05-10T07:05:01.482Z,10.4
2017-05-10T07:10:01.829Z,10.5
2017-05-10T07:15:01.263Z,10.6
2017-05-10T07:20:01.458Z,10.6
2017-05-10T07:25:01.696Z,10.7
2017-05-10T07:30:01.922Z,10.8
2017-05-10T07:35:01.302Z,10.8
2017-05-10T07:40:02.047Z,10.8
2017-05-10T07:45:01.743Z,10.9
2017-05-10T07:50:01.307Z,11
2017-05-10T07:55:01.958Z,11
2017-05-10T08:00:01.348Z,11
2017-05-10T08:05:01.838Z,11.1
2017-05-10T08:10:01.691Z,11.1
2017-05-10T08:15:01.695Z,11.2
2017-05-10T08:20:01.864Z,11.4
2017-05-10T08:25:01.923Z,11.5
2017-05-10T08:30:02.078Z,11.5
2017-05-10T08:35:01.674Z,11.7
2017-05-10T08:40:01.563Z,11.8
2017-05-10T08:45:02.129Z,11.9
2017-05-10T08:50:01.716Z,11.9
2017-05-10T08:55:01.762Z,11.8
2017-05-10T09:00:01.504Z,11.7
2017-05-10T09:05:01.985Z,11.7
2017-05-10T09:10:01.790Z,11.6
2017-05-10T09:15:01.961Z,11.8
2017-05-10T09:20:01.274Z,11.9
2017-05-10T09:25:01.519Z,12.1
2017-05-10T09:30:01.993Z,12.3
2017-05-10T09:35:02.046Z,12.4
2017-05-10T09:40:01.817Z,12.5
2017-05-10T09:45:01.432Z,12.5
2017-05-10T09:50:01.771Z,12.5
2017-05-10T09:55:01.460Z,12.4
2017-05-10T10:00:01.754Z,12.2
2017-05-10T10:05:01.351Z,12.1
2017-05-10T10:10:01.632Z,12.1
2017-05-10T10:15:01.937Z,12
2017-05-10T10:20:01.611Z,11.9
2017-05-10T10:25:01.577Z,11.7
2017-05-10T10:30:01.857Z,11.7
2017-05-10T10:35:02.129Z,11.7
2017-05-10T10:40:01.814Z,11.9
2017-05-10T10:45:01.484Z,11.9
2017-05-10T10:50:01.560Z,12.2
2017-05-10T10:55:01.252Z,12.3
2017-05-10T11:00:01.407Z,12.4
2017-05-10T11:05:02.066Z,12.4
2017-05-10T11:10:01.922Z,12.4
2017-05-10T11:15:01.505Z,12.4
2017-05-10T11:20:01.258Z,12.4
2017-05-10T11:25:01.571Z,12.3
2017-05-10T11:30:01.846Z,12.2
2017-05-10T11:35:01.765Z,12.1
2017-05-10T11:40:01.557Z,12.1
2017-05-10T11:45:01.237Z,12
2017-05-10T11:50:01.505Z,12
2017-05-10T11:55:02.057Z,11.9
2017-05-10T12:00:01.600Z,11.9
2017-05-10T12:05:02.168Z,12.1
2017-05-10T12:10:02.014Z,12.2
2017-05-10T12:15:01.514Z,12.2
2017-05-10T12:20:01.807Z,12.2
2017-05-10T12:25:02.178Z,12.1
2017-05-10T12:30:01.444Z,12.1
2017-05-10T12:35:01.525Z,12.1
2017-05-10T12:40:01.179Z,12
2017-05-10T12:45:01.852Z,12.1
2017-05-10T12:50:01.782Z,12.1
2017-05-10T12:55:01.418Z,11.9
2017-05-10T13:00:01.683Z,12
2017-05-10T13:05:02.162Z,12
2017-05-10T13:10:01.872Z,12.1
2017-05-10T13:15:01.293Z,12.2
2017-05-10T13:20:01.790Z,12.3
2017-05-10T13:25:02.194Z,12.5
2017-05-10T13:30:01.840Z,12.5
2017-05-10T13:35:01.975Z,12.5
2017-05-10T13:40:02.044Z,12.6
2017-05-10T13:45:01.956Z,12.5
2017-05-10T13:50:02.326Z,12.4
2017-05-10T13:55:01.276Z,12.4
2017-05-10T14:00:02.114Z,12.4
2017-05-10T14:05:01.839Z,12.5
2017-05-10T14:10:01.989Z,12.5
2017-05-10T14:15:01.336Z,12.6
2017-05-10T14:20:01.766Z,12.7
2017-05-10T14:25:01.793Z,12.6
2017-05-10T14:30:02.025Z,12.7
2017-05-10T14:35:01.585Z,12.6
2017-05-10T14:40:01.309Z,12.7
2017-05-10T14:45:01.826Z,12.7
2017-05-10T14:50:01.725Z,12.5
2017-05-10T14:55:01.346Z,12.5
2017-05-10T15:00:01.383Z,12.6
2017-05-10T15:05:01.175Z,12.5
2017-05-10T15:10:02.053Z,12.5
2017-05-10T15:15:01.421Z,12.5
2017-05-10T15:20:01.731Z,12.6
2017-05-10T15:25:01.840Z,12.6
2017-05-10T15:30:01.307Z,12.6
2017-05-10T15:35:01.788Z,12.6
2017-05-10T15:40:01.579Z,12.6
2017-05-10T15:45:02.078Z,12.4
2017-05-10T15:50:01.316Z,12.4
2017-05-10T15:55:02.034Z,12.4
2017-05-10T16:00:01.334Z,12.4
2017-05-10T16:05:02.009Z,12.4
2017-05-10T16:10:01.991Z,12.2
2017-05-10T16:15:01.931Z,12.2
2017-05-10T16:20:01.999Z,12.1
2017-05-10T16:25:02.045Z,12.1
2017-05-10T16:30:01.278Z,12.1
2017-05-10T16:35:01.587Z,12.1
2017-05-10T16:40:01.609Z,12.2
2017-05-10T16:45:01.287Z,12.1
2017-05-10T16:50:01.915Z,12.2
2017-05-10T16:55:01.467Z,12.2
2017-05-10T17:00:01.240Z,12.1
2017-05-10T17:05:01.419Z,12.1
2017-05-10T17:10:02.212Z,12.2
2017-05-10T17:15:01.543Z,12.1
2017-05-10T17:20:02.187Z,12
2017-05-10T17:25:01.922Z,12
2017-05-10T17:30:01.555Z,12
2017-05-10T17:35:02.154Z,12
2017-05-10T17:40:01.575Z,11.9
2017-05-10T17:45:01.938Z,11.9
2017-05-10T17:50:01.351Z,11.9
2017-05-10T17:55:01.844Z,11.8
2017-05-10T18:00:02.403Z,11.9
2017-05-10T18:05:02.267Z,11.8
2017-05-10T18:10:01.719Z,11.7
2017-05-10T18:15:02.141Z,11.7
2017-05-10T18:20:01.996Z,11.6
2017-05-10T18:25:02.319Z,11.7
2017-05-10T18:30:01.480Z,11.7
2017-05-10T18:35:01.931Z,11.6
2017-05-10T18:40:01.745Z,11.6
2017-05-10T18:45:02.032Z,11.6
2017-05-10T18:50:02.173Z,11.6
2017-05-10T18:55:01.905Z,11.5
2017-05-10T19:00:02.036Z,11.5
2017-05-10T19:05:02.158Z,11.5
2017-05-10T19:10:01.465Z,11.4
2017-05-10T19:15:01.670Z,11.5
2017-05-10T19:20:01.972Z,11.4
2017-05-10T19:25:01.360Z,11.3
2017-05-10T19:30:01.904Z,11.3
2017-05-10T19:35:01.484Z,11.2
2017-05-10T19:40:01.714Z,11.2
2017-05-10T19:45:02.190Z,11.2
2017-05-10T19:50:02.167Z,11.2
2017-05-10T19:55:01.287Z,11.1
2017-05-10T20:00:01.671Z,11
2017-05-10T20:05:01.909Z,11
2017-05-10T20:10:01.790Z,11
2017-05-10T20:15:01.334Z,10.9
2017-05-10T20:20:01.790Z,10.8
2017-05-10T20:25:01.398Z,10.8
2017-05-10T20:30:01.454Z,10.8
2017-05-10T20:35:01.907Z,10.8
2017-05-10T20:40:01.725Z,10.7
2017-05-10T20:45:02.429Z,10.7
2017-05-10T20:50:01.910Z,10.7
2017-05-10T20:55:02.185Z,10.6
2017-05-10T21:00:02.019Z,10.6
2017-05-10T21:05:01.444Z,10.7
2017-05-10T21:10:01.247Z,10.6
2017-05-10T21:15:01.958Z,10.6
2017-05-10T21:20:02.312Z,10.6
2017-05-10T21:25:01.571Z,10.7
2017-05-10T21:30:02.216Z,10.6
2017-05-10T21:35:01.594Z,10.6
2017-05-10T21:40:02.097Z,10.7
2017-05-10T21:45:01.851Z,10.7
2017-05-10T21:50:01.810Z,10.6
2017-05-10T21:55:02.386Z,10.7
2017-05-10T22:00:02.722Z,10.6
2017-05-10T22:05:01.898Z,10.7
2017-05-10T22:10:01.482Z,10.7
2017-05-10T22:15:01.405Z,10.6
2017-05-10T22:20:02.698Z,10.7
2017-05-10T22:25:02.051Z,10.7
2017-05-10T22:30:01.911Z,10.6
2017-05-10T22:35:02.049Z,10.7
2017-05-10T22:40:01.640Z,10.7
2017-05-10T22:45:02.384Z,10.7
2017-05-10T22:50:01.829Z,10.6
2017-05-10T22:55:01.877Z,10.6
2017-05-10T23:00:01.849Z,10.7
2017-05-10T23:05:01.395Z,10.7
2017-05-10T23:10:01.758Z,10.6
2017-05-10T23:15:02.107Z,10.6
2017-05-10T23:20:01.415Z,10.7
2017-05-10T23:25:02.126Z,10.7
2017-05-10T23:30:01.246Z,10.7
2017-05-10T23:35:01.379Z,10.6
2017-05-10T23:40:01.893Z,10.6
2017-05-10T23:45:01.925Z,10.6
2017-05-10T23:50:01.264Z,10.7
2017-05-10T23:55:02.287Z,10.7
